Gallatin Gateway, MT

11:06 AM MDT on July 24, 2014 (GMT -0600)
Second Pine View (KMTBOZEM48) Elev 5328 ft | 45.60 °N, 111.08 °W | Change Station

Current weather conditions updated 14 minutes ago

Clear
Clear
74.7 °F
Feels Like 77 °F
N
2.2
Wind Variable Wind from West

Today is forecast to be Much Cooler than yesterday.

Today
High -- | Low -- °F
--% Chance of Precip.
Yesterday
High -- | Low -- °F
Precip. -- in
6:00 AM 9:01 PM
Waning Crescent, 5% visible
Pressure 29.82 in
Visibility 10.0 miles
Clouds Clear
Heat Index 77 °F
Dew Point 49 °F
Humidity 41%
Rainfall 0.00 in
Snow Depth 1 in , 0 in
UV 8 out of 12
Pollen 5.40 out of 12
Air Quality Not available.
Flu Activity Not available.
METAR KBZN 241656Z 00000KT 10SM CLR 23/09 A2995 RMK AO2 SLP098 T02330089

More Conditions Fewer Conditions

Pressure 29.82 in
Visibility 10.0 miles
Clouds Clear
Heat Index 77 °F
Dew Point 49 °F
Humidity 41%
Rainfall 0.00 in
Snow Depth 1 in , 0 in
UV 8 out of 12
Pollen 5.40 out of 12
Air Quality Not available.
Flu Activity Not available.
METAR KBZN 241656Z 00000KT 10SM CLR 23/09 A2995 RMK AO2 SLP098 T02330089

More Conditions Fewer Conditions

10-Day Weather Forecast

Almanac

Astronomy

Jul. 24, 2014 Rise Set
Actual Time 6:00 AM MDT 9:01 PM MDT
Civil Twilight 5:25 AM MDT 9:36 PM MDT
Nautical Twilight 4:40 AM MDT 10:21 PM MDT
Astronomical Twilight 3:45 AM MDT 11:15 PM MDT
Moon 4:12 AM MDT 7:17 PM MDT
Length of Visible Light 16h 11m
Length of Day
15h 01m
Tomorrow will be 2m 8s shorter.
Waning Crescent, 5% of the Moon is Illuminated
Today
Waning Crescent
Jul 26
New
Aug 3
First Quarter
Aug 10
Full
Aug 17
Last Quarter

Today's Extremes

State Highs State Lows

Community

WunderPhotos

Upload Photos

1,737,071 photos uploaded!

Nearby

Snow Depth

Station Depth Elevation
Lone Mountain 1 in 8880 ft
Shower Falls 0 in 8100 ft
Clover Meadow 0 in 8800 ft
Albro Lake 0 in 8300 ft
Short Creek 0 in 7000 ft

Earthquake Activity

City Distance Mag. Time & Date
Driggs, Idaho 108 miles 3.1 5:31 PM MDT
2014-07-17
Minimum magnitude displayed is 2.5.

Coastal Water Temperatures

Place Temperature
No Stations Reporting

Nearby Weather Stations

Station Location Temp. Heat Index Dew Point Humidity Wind Precip. Elev Updated Type
RAWS SHENANGO MT, Gallatin Gateway, MT 69 °F - 50 °F 51% SE  at  2 mph 0.00 in / hr 5391 ft 9:39 AM MDT MADIS
Second Pine View, Bozeman, MT 74.7 °F 77 °F 49 °F 41% West  at  2.2 mph - / hr 5328 ft 10:51 AM MDT Normal
Fowler-Indian Paintbrush, Bozeman, MT 71.0 °F 77 °F 48 °F 45% SW  at  4.0 mph 0.00 in / hr 5325 ft 11:06 AM MDT Rapid Fire
RAWS YELLOW MULE MT, Big Sky, MT 64 °F - 24 °F 22% South  at  18 mph 0.00 in / hr 9200 ft 10:04 AM MDT MADIS

Show More Stations Show Fewer Stations